createdAt,value
2022-09-24T00:01:15.253Z,18.17
2022-09-24T00:03:45.817Z,18.67
2022-09-24T00:06:15.129Z,18.00
2022-09-24T00:08:44.839Z,18.47
2022-09-24T00:11:14.141Z,19.50
2022-09-24T00:13:42.820Z,21.17
2022-09-24T00:16:12.538Z,15.30
2022-09-24T00:18:41.487Z,19.40
2022-09-24T00:21:13.643Z,24.10
2022-09-24T00:23:44.840Z,16.40
2022-09-24T00:26:32.777Z,16.03
2022-09-24T00:29:01.271Z,16.33
2022-09-24T00:31:29.695Z,16.73
2022-09-24T00:33:59.380Z,18.33
2022-09-24T00:36:27.769Z,16.07
2022-09-24T00:38:57.093Z,18.37
2022-09-24T00:41:28.668Z,21.07
2022-09-24T00:43:57.015Z,19.40
2022-09-24T00:46:27.506Z,21.50
2022-09-24T00:48:57.419Z,14.03
2022-09-24T00:51:27.077Z,22.43
2022-09-24T00:53:58.169Z,18.50
2022-09-24T00:56:29.097Z,17.50
2022-09-24T00:58:58.892Z,17.93
2022-09-24T01:01:27.435Z,20.60
2022-09-24T01:03:57.020Z,16.77
2022-09-24T01:06:25.770Z,17.03
2022-09-24T01:08:54.500Z,19.53
2022-09-24T01:11:28.478Z,20.40
2022-09-24T01:14:14.767Z,19.23
2022-09-24T01:16:47.008Z,21.93
2022-09-24T01:19:25.592Z,18.90
2022-09-24T01:21:56.374Z,22.67
2022-09-24T01:24:40.430Z,16.87
2022-09-24T01:27:12.190Z,16.10
2022-09-24T01:29:46.000Z,16.90
2022-09-24T01:32:18.779Z,25.80
2022-09-24T01:34:49.549Z,21.50
2022-09-24T01:37:19.157Z,17.80
2022-09-24T01:39:48.769Z,20.00
2022-09-24T01:42:18.262Z,20.53
2022-09-24T01:44:50.318Z,14.83
2022-09-24T01:47:21.206Z,16.17
2022-09-24T01:49:51.466Z,20.60
2022-09-24T01:52:24.489Z,17.87
2022-09-24T01:54:54.021Z,17.57
2022-09-24T01:57:25.405Z,17.33
2022-09-24T01:59:58.104Z,17.20
2022-09-24T02:02:29.535Z,17.20
2022-09-24T02:05:00.686Z,17.17
2022-09-24T02:07:32.281Z,20.97
2022-09-24T02:10:03.995Z,15.93
2022-09-24T02:12:34.454Z,17.40
2022-09-24T02:15:09.077Z,18.50
2022-09-24T02:17:40.231Z,17.33
2022-09-24T02:20:11.423Z,16.73
2022-09-24T02:22:40.377Z,17.23
2022-09-24T02:25:10.891Z,18.77
2022-09-24T02:27:39.253Z,17.33
2022-09-24T02:30:10.971Z,15.63
2022-09-24T02:32:41.219Z,14.53
2022-09-24T02:35:10.264Z,19.63
2022-09-24T02:37:39.354Z,15.50
2022-09-24T02:40:09.138Z,20.07
2022-09-24T02:42:41.100Z,18.13
2022-09-24T02:45:11.753Z,18.67
2022-09-24T02:47:40.203Z,15.07
2022-09-24T02:50:09.093Z,19.03
2022-09-24T02:52:37.435Z,17.43
2022-09-24T02:55:06.913Z,15.90
2022-09-24T02:57:37.850Z,14.17
2022-09-24T03:00:07.087Z,21.20
2022-09-24T03:02:40.008Z,14.77
2022-09-24T03:05:09.201Z,17.27
2022-09-24T03:07:37.585Z,20.03
2022-09-24T03:10:06.307Z,15.43
2022-09-24T03:12:34.670Z,14.50
2022-09-24T03:15:03.074Z,18.07
2022-09-24T03:17:31.428Z,12.40
2022-09-24T03:20:01.148Z,15.40
2022-09-24T03:22:29.580Z,20.00
2022-09-24T03:24:57.967Z,14.17
2022-09-24T03:27:26.343Z,14.70
2022-09-24T03:30:12.217Z,16.83
2022-09-24T03:32:40.689Z,16.33
2022-09-24T03:35:12.009Z,20.47
2022-09-24T03:37:47.069Z,20.77
2022-09-24T03:40:17.547Z,16.43
2022-09-24T03:42:45.923Z,14.77
2022-09-24T03:45:14.286Z,14.50
2022-09-24T03:47:42.953Z,17.47
2022-09-24T03:50:12.806Z,18.87
2022-09-24T03:52:41.262Z,16.80
2022-09-24T03:55:10.055Z,14.87
2022-09-24T03:57:38.425Z,15.47
2022-09-24T04:00:07.194Z,14.27
2022-09-24T04:02:36.313Z,17.00
2022-09-24T04:05:04.737Z,17.90
2022-09-24T04:07:36.638Z,17.43
2022-09-24T04:10:05.327Z,18.77
2022-09-24T04:12:33.790Z,19.67
2022-09-24T04:15:02.616Z,16.90
2022-09-24T04:17:31.331Z,17.20
2022-09-24T04:19:59.826Z,14.67
2022-09-24T04:22:29.154Z,20.43
2022-09-24T04:24:59.061Z,17.43
2022-09-24T04:27:27.449Z,16.50
2022-09-24T04:29:55.837Z,15.97
2022-09-24T04:32:27.242Z,17.93
2022-09-24T04:34:55.616Z,12.50
2022-09-24T04:37:26.830Z,13.77
2022-09-24T04:39:55.216Z,17.00
2022-09-24T04:42:24.995Z,13.27
2022-09-24T04:44:56.453Z,13.43
2022-09-24T04:47:25.908Z,13.03
2022-09-24T04:49:54.303Z,13.93
2022-09-24T04:52:29.715Z,19.03
2022-09-24T04:54:58.124Z,15.47
2022-09-24T04:57:33.018Z,13.77
2022-09-24T05:00:01.408Z,14.93
2022-09-24T05:02:30.007Z,15.77
2022-09-24T05:04:58.457Z,15.87
2022-09-24T05:07:26.937Z,14.67
2022-09-24T05:09:55.287Z,14.03
2022-09-24T05:12:23.630Z,20.30
2022-09-24T05:14:53.348Z,14.93
2022-09-24T05:17:21.701Z,13.17
2022-09-24T05:19:50.095Z,17.47
2022-09-24T05:22:18.451Z,16.03
2022-09-24T05:24:46.875Z,13.80
2022-09-24T05:27:14.309Z,14.00
2022-09-24T05:29:44.072Z,13.27
2022-09-24T05:32:15.226Z,11.70
2022-09-24T05:34:44.601Z,15.43
2022-09-24T05:37:13.679Z,15.73
2022-09-24T05:39:42.251Z,14.93
2022-09-24T05:42:13.897Z,13.03
2022-09-24T05:44:46.416Z,13.43
2022-09-24T05:47:18.321Z,13.73
2022-09-24T05:49:46.689Z,15.43
2022-09-24T05:52:15.184Z,11.40
2022-09-24T05:54:43.557Z,11.73
2022-09-24T05:57:15.535Z,17.63
2022-09-24T05:59:43.891Z,17.93
2022-09-24T06:02:12.707Z,12.50
2022-09-24T06:04:43.245Z,12.93
2022-09-24T06:07:11.795Z,12.50
2022-09-24T06:09:40.819Z,13.50
2022-09-24T06:12:12.236Z,15.20
2022-09-24T06:14:41.329Z,15.17
2022-09-24T06:17:09.676Z,13.00
2022-09-24T06:19:39.060Z,15.27
2022-09-24T06:22:08.744Z,22.30
2022-09-24T06:24:39.148Z,13.43
2022-09-24T06:27:07.453Z,15.83
2022-09-24T06:29:35.791Z,16.03
2022-09-24T06:32:04.227Z,16.17
2022-09-24T06:34:32.724Z,15.50
2022-09-24T06:37:01.184Z,16.37
2022-09-24T06:39:30.962Z,17.57
2022-09-24T06:41:59.369Z,13.73
2022-09-24T06:44:34.610Z,14.70
2022-09-24T06:47:03.094Z,15.50
2022-09-24T06:49:34.327Z,15.13
2022-09-24T06:52:03.097Z,15.17
2022-09-24T06:54:33.115Z,18.03
2022-09-24T06:57:01.543Z,15.03
2022-09-24T06:59:30.024Z,14.33
2022-09-24T07:01:58.419Z,16.60
2022-09-24T07:04:26.854Z,14.73
2022-09-24T07:07:12.974Z,12.77
2022-09-24T07:09:42.739Z,18.97
2022-09-24T07:12:11.047Z,21.60
2022-09-24T07:14:39.394Z,17.10
2022-09-24T07:17:07.719Z,17.00
2022-09-24T07:19:36.069Z,13.63
2022-09-24T07:22:04.441Z,14.10
2022-09-24T07:24:32.811Z,16.07
2022-09-24T07:27:02.509Z,11.37
2022-09-24T07:29:30.937Z,11.87
2022-09-24T07:31:59.280Z,12.60
2022-09-24T07:34:27.720Z,14.83
2022-09-24T07:36:56.877Z,12.07
2022-09-24T07:39:25.253Z,15.87
2022-09-24T07:41:54.507Z,26.90
2022-09-24T07:44:24.564Z,18.97
2022-09-24T07:46:53.152Z,18.73
2022-09-24T07:49:21.762Z,19.03
2022-09-24T07:51:50.320Z,18.63
2022-09-24T07:54:18.867Z,12.70
2022-09-24T07:56:47.298Z,19.43
2022-09-24T07:59:15.792Z,14.00
2022-09-24T08:01:45.630Z,12.60
2022-09-24T08:04:14.156Z,13.17
2022-09-24T08:06:47.394Z,14.83
2022-09-24T08:09:17.016Z,13.00
2022-09-24T08:11:45.632Z,14.37
2022-09-24T08:14:14.012Z,11.63
2022-09-24T08:16:42.361Z,12.20
2022-09-24T08:19:14.222Z,12.30
2022-09-24T08:21:42.888Z,11.63
2022-09-24T08:24:11.311Z,12.53
2022-09-24T08:26:39.673Z,11.57
2022-09-24T08:29:08.129Z,11.30
2022-09-24T08:31:37.341Z,12.17
2022-09-24T08:34:05.827Z,11.77
2022-09-24T08:36:38.338Z,11.27
2022-09-24T08:39:09.183Z,11.30
2022-09-24T08:41:49.165Z,10.03
2022-09-24T08:44:39.904Z,11.27
2022-09-24T08:47:24.613Z,9.57
2022-09-24T08:49:56.720Z,10.93
2022-09-24T08:52:32.369Z,10.70
2022-09-24T08:55:03.647Z,8.13
2022-09-24T08:57:42.594Z,8.80
2022-09-24T09:00:15.666Z,10.40
2022-09-24T09:02:48.732Z,11.43
2022-09-24T09:05:20.493Z,10.30
2022-09-24T09:07:54.435Z,12.77
2022-09-24T09:10:27.857Z,10.30
2022-09-24T09:12:58.792Z,14.33
2022-09-24T09:15:29.047Z,11.23
2022-09-24T09:18:00.388Z,10.63
2022-09-24T09:20:32.005Z,13.00
2022-09-24T09:23:05.521Z,11.97
2022-09-24T09:25:37.311Z,12.50
2022-09-24T09:28:09.661Z,14.20
2022-09-24T09:30:43.574Z,14.07
2022-09-24T09:33:25.809Z,12.43
2022-09-24T09:35:57.398Z,14.47
2022-09-24T09:38:29.668Z,13.57
2022-09-24T09:41:02.082Z,12.57
2022-09-24T09:43:30.925Z,14.97
2022-09-24T09:46:08.477Z,12.23
2022-09-24T09:48:42.944Z,13.80
2022-09-24T09:51:18.745Z,11.60
2022-09-24T09:53:58.536Z,15.73
2022-09-24T09:56:27.852Z,13.67
2022-09-24T09:59:03.759Z,13.93
2022-09-24T10:01:33.535Z,15.00
2022-09-24T10:04:04.661Z,11.20
2022-09-24T10:06:33.919Z,13.47
2022-09-24T10:09:14.006Z,13.77
2022-09-24T10:11:43.206Z,9.40
2022-09-24T10:14:12.666Z,9.33
2022-09-24T10:16:41.516Z,10.73
2022-09-24T10:19:21.196Z,14.93
2022-09-24T10:21:49.611Z,11.00
2022-09-24T10:24:21.949Z,11.63
2022-09-24T10:26:50.700Z,10.37
2022-09-24T10:29:38.169Z,14.83
2022-09-24T10:32:06.778Z,11.53
2022-09-24T10:34:35.159Z,9.53
2022-09-24T10:37:10.170Z,11.00
2022-09-24T10:39:40.763Z,11.20
2022-09-24T10:42:24.435Z,10.33
2022-09-24T10:44:53.820Z,11.83
2022-09-24T10:47:27.384Z,13.93
2022-09-24T10:50:03.278Z,15.07
2022-09-24T10:52:38.321Z,10.87
2022-09-24T10:55:16.595Z,14.13
2022-09-24T10:57:51.611Z,13.57
2022-09-24T11:00:21.727Z,16.77
2022-09-24T11:03:01.587Z,12.90
2022-09-24T11:05:32.730Z,12.07
2022-09-24T11:08:09.757Z,11.47
2022-09-24T11:10:53.272Z,15.00
2022-09-24T11:13:27.499Z,13.17
2022-09-24T11:16:17.322Z,11.13
2022-09-24T11:18:53.439Z,12.20
2022-09-24T11:21:30.541Z,15.43
2022-09-24T11:24:04.255Z,14.67
2022-09-24T11:26:39.048Z,14.80
2022-09-24T11:29:19.645Z,11.57
2022-09-24T11:31:54.708Z,10.77
2022-09-24T11:34:30.186Z,14.73
2022-09-24T11:37:07.924Z,12.43
2022-09-24T11:39:42.545Z,12.07
2022-09-24T11:42:19.734Z,10.57
2022-09-24T11:45:02.347Z,12.23
2022-09-24T11:47:38.746Z,14.77
2022-09-24T11:50:22.734Z,12.00
2022-09-24T11:52:54.927Z,12.27
2022-09-24T11:55:25.837Z,11.00
2022-09-24T11:57:56.446Z,12.07
2022-09-24T12:00:29.758Z,13.63
2022-09-24T12:03:03.544Z,16.43
2022-09-24T12:05:35.352Z,11.27
2022-09-24T12:08:07.515Z,12.00
2022-09-24T12:10:39.519Z,10.57
2022-09-24T12:13:13.501Z,10.83
2022-09-24T12:15:48.407Z,10.40
2022-09-24T12:18:19.534Z,11.03
2022-09-24T12:20:50.734Z,12.00
2022-09-24T12:23:21.222Z,14.53
2022-09-24T12:25:51.461Z,10.57
2022-09-24T12:28:40.479Z,12.47
2022-09-24T12:31:33.492Z,15.50
2022-09-24T12:34:08.250Z,12.87
2022-09-24T12:36:43.983Z,10.07
2022-09-24T12:39:14.301Z,10.87
2022-09-24T12:41:44.626Z,11.43
2022-09-24T12:44:21.982Z,9.87
2022-09-24T12:46:53.564Z,10.40
2022-09-24T12:49:29.606Z,11.90
2022-09-24T12:51:58.555Z,15.90
2022-09-24T12:54:29.846Z,10.27
2022-09-24T12:57:09.005Z,13.23
2022-09-24T12:59:47.629Z,13.00
2022-09-24T13:02:18.869Z,11.70
2022-09-24T13:04:52.394Z,16.13
2022-09-24T13:07:30.808Z,12.60
2022-09-24T13:09:59.199Z,13.13
2022-09-24T13:12:33.131Z,11.50
2022-09-24T13:15:02.882Z,10.60
2022-09-24T13:17:34.452Z,13.67
2022-09-24T13:20:06.250Z,13.30
2022-09-24T13:22:42.813Z,11.13
2022-09-24T13:25:22.808Z,11.27
2022-09-24T13:27:58.557Z,13.23
2022-09-24T13:30:35.975Z,9.03
2022-09-24T13:33:07.707Z,11.40
2022-09-24T13:35:43.252Z,8.53
2022-09-24T13:38:17.912Z,10.97
2022-09-24T13:40:50.652Z,10.40
2022-09-24T13:43:21.784Z,6.47
2022-09-24T13:45:50.170Z,6.80
2022-09-24T13:48:27.116Z,6.40
2022-09-24T13:50:55.766Z,6.93
2022-09-24T13:53:28.015Z,6.67
2022-09-24T13:55:57.113Z,6.13
2022-09-24T13:58:29.224Z,5.70
2022-09-24T14:00:58.365Z,5.53
2022-09-24T14:03:30.177Z,6.30
2022-09-24T14:05:58.708Z,5.47
2022-09-24T14:08:28.522Z,5.13
2022-09-24T14:11:08.057Z,6.80
2022-09-24T14:13:41.647Z,7.13
2022-09-24T14:16:10.888Z,6.40
2022-09-24T14:18:41.107Z,9.03
2022-09-24T14:21:10.890Z,7.30
2022-09-24T14:23:41.343Z,9.03
2022-09-24T14:26:12.573Z,8.27
2022-09-24T14:28:41.067Z,6.37
2022-09-24T14:31:10.075Z,5.77
2022-09-24T14:33:39.340Z,6.13
2022-09-24T14:36:12.186Z,6.83
2022-09-24T14:38:53.258Z,6.03
2022-09-24T14:41:24.306Z,4.53
2022-09-24T14:43:54.637Z,6.77
2022-09-24T14:46:24.038Z,4.23
2022-09-24T14:48:53.336Z,7.13
2022-09-24T14:51:27.679Z,5.53
2022-09-24T14:54:00.183Z,5.00
2022-09-24T14:56:32.257Z,4.30
2022-09-24T14:59:01.238Z,6.33
2022-09-24T15:01:32.400Z,5.27
2022-09-24T15:04:02.678Z,5.97
2022-09-24T15:06:33.539Z,5.50
2022-09-24T15:09:03.733Z,3.70
2022-09-24T15:11:34.365Z,6.47
2022-09-24T15:14:04.236Z,5.63
2022-09-24T15:16:34.123Z,4.03
2022-09-24T15:19:16.839Z,4.17
2022-09-24T15:21:46.902Z,4.03
2022-09-24T15:24:15.401Z,4.93
2022-09-24T15:26:45.264Z,3.93
2022-09-24T15:29:20.016Z,5.90
2022-09-24T15:31:48.509Z,4.07
2022-09-24T15:34:20.167Z,5.93
2022-09-24T15:36:50.408Z,3.70
2022-09-24T15:39:20.410Z,6.07
2022-09-24T15:41:48.885Z,5.40
2022-09-24T15:44:20.679Z,5.27
2022-09-24T15:46:51.075Z,4.67
2022-09-24T15:49:22.120Z,6.03
2022-09-24T15:51:53.505Z,5.50
2022-09-24T15:54:24.843Z,4.73
2022-09-24T15:56:53.352Z,6.17
2022-09-24T15:59:22.632Z,4.80
2022-09-24T16:01:52.927Z,5.50
2022-09-24T16:04:21.370Z,5.67
2022-09-24T16:06:50.448Z,4.90
2022-09-24T16:09:20.210Z,7.57
2022-09-24T16:11:48.570Z,6.87
2022-09-24T16:14:16.942Z,6.03
2022-09-24T16:16:45.348Z,4.23
2022-09-24T16:19:13.743Z,4.67
2022-09-24T16:21:42.205Z,5.80
2022-09-24T16:24:10.629Z,4.77
2022-09-24T16:26:40.423Z,4.60
2022-09-24T16:29:11.892Z,5.43
2022-09-24T16:31:40.363Z,6.53
2022-09-24T16:34:08.831Z,4.90
2022-09-24T16:36:37.194Z,5.70
2022-09-24T16:39:06.123Z,6.33
2022-09-24T16:41:36.933Z,5.43
2022-09-24T16:44:06.996Z,4.97
2022-09-24T16:46:35.678Z,4.97
2022-09-24T16:49:04.103Z,7.10
2022-09-24T16:51:32.424Z,6.63
2022-09-24T16:54:00.837Z,8.87
2022-09-24T16:56:29.492Z,8.70
2022-09-24T16:58:58.237Z,8.17
2022-09-24T17:01:28.005Z,7.00
2022-09-24T17:03:57.262Z,5.03
2022-09-24T17:06:26.370Z,6.43
2022-09-24T17:09:12.918Z,6.77
2022-09-24T17:11:41.941Z,6.97
2022-09-24T17:14:12.481Z,5.93
2022-09-24T17:16:42.728Z,10.20
2022-09-24T17:19:11.940Z,8.13
2022-09-24T17:21:41.502Z,9.03
2022-09-24T17:24:10.294Z,10.37
2022-09-24T17:26:39.258Z,6.97
2022-09-24T17:29:07.677Z,10.93
2022-09-24T17:31:36.187Z,9.17
2022-09-24T17:34:07.102Z,7.27
2022-09-24T17:36:36.241Z,9.97
2022-09-24T17:39:06.457Z,9.70
2022-09-24T17:41:35.295Z,12.07
2022-09-24T17:44:03.685Z,11.13
2022-09-24T17:46:35.419Z,12.17
2022-09-24T17:49:03.851Z,12.77
2022-09-24T17:51:36.273Z,17.43
2022-09-24T17:54:06.202Z,23.40
2022-09-24T17:56:38.827Z,23.93
2022-09-24T17:59:07.759Z,20.27
2022-09-24T18:01:37.261Z,24.63
2022-09-24T18:04:07.001Z,18.77
2022-09-24T18:06:38.020Z,20.27
2022-09-24T18:09:07.219Z,20.80
2022-09-24T18:11:39.045Z,23.40
2022-09-24T18:14:07.390Z,27.07
2022-09-24T18:16:36.165Z,32.83
2022-09-24T18:19:04.641Z,22.37
2022-09-24T18:21:33.089Z,29.27
2022-09-24T18:24:03.066Z,20.07
2022-09-24T18:26:34.249Z,23.97
2022-09-24T18:29:04.469Z,19.87
2022-09-24T18:31:33.517Z,19.87
2022-09-24T18:34:04.018Z,20.33
2022-09-24T18:36:32.927Z,20.63
2022-09-24T18:39:02.726Z,21.23
2022-09-24T18:41:31.834Z,35.33
2022-09-24T18:44:00.719Z,23.33
2022-09-24T18:46:30.920Z,17.17
2022-09-24T18:48:59.827Z,20.13
2022-09-24T18:51:29.077Z,22.57
2022-09-24T18:53:58.328Z,25.30
2022-09-24T18:56:29.062Z,19.57
2022-09-24T18:58:58.181Z,25.83
2022-09-24T19:01:27.640Z,22.53
2022-09-24T19:03:56.504Z,25.63
2022-09-24T19:06:24.870Z,27.93
2022-09-24T19:08:53.243Z,41.73
2022-09-24T19:11:22.859Z,33.73
2022-09-24T19:13:53.420Z,26.67
2022-09-24T19:16:23.695Z,25.77
2022-09-24T19:18:52.799Z,26.83
2022-09-24T19:21:21.566Z,36.63
2022-09-24T19:23:50.539Z,30.47
2022-09-24T19:26:20.495Z,23.47
2022-09-24T19:28:50.895Z,35.23
2022-09-24T19:31:22.004Z,31.00
2022-09-24T19:33:51.652Z,23.47
2022-09-24T19:36:21.478Z,37.80
2022-09-24T19:38:50.244Z,30.13
2022-09-24T19:41:21.498Z,22.37
2022-09-24T19:43:50.872Z,26.90
2022-09-24T19:46:22.217Z,31.60
2022-09-24T19:48:51.076Z,29.43
2022-09-24T19:51:20.419Z,22.83
2022-09-24T19:53:49.227Z,33.17
2022-09-24T19:56:19.384Z,26.57
2022-09-24T19:58:49.771Z,25.90
2022-09-24T20:01:18.190Z,27.63
2022-09-24T20:03:48.496Z,33.03
2022-09-24T20:06:18.080Z,31.27
2022-09-24T20:08:46.691Z,41.73
2022-09-24T20:11:17.174Z,29.07
2022-09-24T20:13:46.674Z,30.30
2022-09-24T20:16:16.324Z,27.07
2022-09-24T20:18:44.996Z,35.40
2022-09-24T20:21:18.005Z,38.57
2022-09-24T20:23:46.466Z,31.57
2022-09-24T20:26:44.546Z,28.57
2022-09-24T20:29:13.772Z,33.40
2022-09-24T20:31:42.642Z,30.33
2022-09-24T20:34:11.154Z,28.70
2022-09-24T20:36:41.189Z,45.97
2022-09-24T20:39:09.611Z,32.90
2022-09-24T20:41:38.275Z,27.33
2022-09-24T20:44:06.681Z,48.17
2022-09-24T20:46:35.128Z,44.47
2022-09-24T20:49:04.120Z,33.93
2022-09-24T20:51:34.524Z,38.63
2022-09-24T20:54:04.619Z,28.80
2022-09-24T20:56:32.984Z,31.53
2022-09-24T20:59:01.900Z,35.67
2022-09-24T21:01:30.379Z,34.97
2022-09-24T21:03:58.800Z,35.60
2022-09-24T21:06:27.203Z,34.43
2022-09-24T21:08:55.630Z,32.80
2022-09-24T21:11:26.563Z,35.47
2022-09-24T21:13:56.067Z,33.80
2022-09-24T21:16:25.687Z,33.80
2022-09-24T21:18:55.224Z,33.77
2022-09-24T21:21:24.729Z,37.10
2022-09-24T21:23:53.882Z,33.43
2022-09-24T21:26:23.495Z,39.83
2022-09-24T21:28:54.403Z,28.53
2022-09-24T21:31:23.800Z,29.80
2022-09-24T21:33:53.565Z,35.87
2022-09-24T21:36:24.289Z,31.60
2022-09-24T21:38:55.043Z,34.03
2022-09-24T21:41:24.700Z,39.50
2022-09-24T21:43:55.492Z,39.53
2022-09-24T21:46:24.521Z,42.27
2022-09-24T21:48:53.948Z,32.07
2022-09-24T21:51:22.807Z,39.30
2022-09-24T21:53:51.699Z,46.20
2022-09-24T21:56:20.389Z,34.20
2022-09-24T21:58:49.075Z,34.10
2022-09-24T22:01:20.240Z,55.47
2022-09-24T22:03:49.760Z,49.40
2022-09-24T22:06:18.445Z,52.23
2022-09-24T22:08:47.417Z,35.10
2022-09-24T22:11:16.091Z,33.07
2022-09-24T22:13:45.055Z,31.70
2022-09-24T22:16:13.503Z,54.13
2022-09-24T22:18:43.208Z,39.50
2022-09-24T22:21:13.112Z,35.27
2022-09-24T22:23:41.673Z,39.57
2022-09-24T22:26:11.379Z,52.07
2022-09-24T22:28:39.776Z,38.90
2022-09-24T22:31:08.963Z,52.00
2022-09-24T22:33:55.197Z,33.93
2022-09-24T22:36:25.543Z,50.33
2022-09-24T22:38:54.836Z,47.77
2022-09-24T22:41:23.927Z,47.90
2022-09-24T22:43:52.875Z,61.03
2022-09-24T22:46:22.016Z,62.37
2022-09-24T22:48:50.448Z,39.53
2022-09-24T22:51:20.065Z,36.57
2022-09-24T22:53:50.142Z,37.80
2022-09-24T22:56:19.381Z,36.63
2022-09-24T22:58:52.023Z,45.60
2022-09-24T23:01:22.563Z,33.47
2022-09-24T23:03:51.538Z,38.80
2022-09-24T23:06:20.910Z,65.97
2022-09-24T23:08:51.162Z,44.60
2022-09-24T23:11:21.009Z,35.83
2022-09-24T23:13:53.221Z,29.93
2022-09-24T23:16:25.873Z,117.20
2022-09-24T23:18:55.350Z,181.87
2022-09-24T23:21:24.706Z,79.10
2022-09-24T23:23:58.270Z,67.37
2022-09-24T23:26:27.204Z,99.67
2022-09-24T23:28:55.927Z,26.70
2022-09-24T23:31:28.591Z,27.80
2022-09-24T23:33:57.749Z,61.97
2022-09-24T23:36:26.453Z,61.60
2022-09-24T23:38:54.801Z,32.97
2022-09-24T23:41:24.912Z,34.87
2022-09-24T23:43:53.463Z,114.27
2022-09-24T23:46:21.955Z,90.83
2022-09-24T23:48:50.510Z,39.13
2022-09-24T23:51:19.005Z,53.07
2022-09-24T23:53:47.406Z,38.90
2022-09-24T23:56:15.807Z,35.03
2022-09-24T23:58:46.009Z,22.90
